Aeroporto :
LOGIN :

Iscrizione | Disclaimer

   EN    FR    IT 

 










Sommario :    VFR   VFR Marginale   IFR   IFR Intensivo   IFR Molto Intensivo
Visibilità : 
Base nubi : 
>= 8 km
>= 3000ft
5 / 8 km
1000 / 3000 ft
1500m / 5 km
500 / 1000 ft
800 / 1500m
200 / 500 ft
< 800m
< 200 ft
Simboli :   Temporali  Nebbia  Neve Forte  Precipitazioni Forti  Vento > 20 kt
SIGMETs :   Varie  Temporali  Ghiacco  Turbolenza  Onda orograficha  Ceneri Vulcaniche






- Altitudine del aeroporto : 1830 ft


EBLB - Butgenbach Elsenborn

ULTIMO METAR :
  • 120055Z AUTO 21005KT 9999 OVC004/// 02/01 Q1002 YLO

METARs OBSOLETI :
  • 120039Z AUTO 20006KT 9999 OVC006/// 02/01 Q1002 YLO
  • 120025Z AUTO 21006KT 9999 OVC009/// 02/01 Q1002 GRN
  • 112355Z AUTO 21004KT 9999 OVC013/// 02/01 Q1003 GRN
  • 112349Z AUTO 21005KT 9999 FEW006/// OVC014/// 02/01 Q1003 GRN
  • 112325Z AUTO 20004KT 9999 OVC007/// 02/01 Q1003 GRN
  • 112255Z AUTO 20005KT 9999 BKN010/// 02/01 Q1003 GRN
  • 112225Z AUTO 21005KT 9999 BKN005/// 02/01 Q1003 YLO
  • 112223Z AUTO 22005KT 7000 BKN005/// 02/01 Q1003 YLO

Previsioni scadute.



MetMap, La meteo Aeronautica in un colpo d'occhio ! - Copyright ORBIFLY Dicembre 2007 - Disclaimer

ORBIFLY MET'MAP TEAM :

Programmazione e sviluppo : Alexandra Zaïnal
Concezione : Baudouin d'Aumeries
Aiuto per la programmazione : Marc-Olivier Méhu
Supporto tecnico e logistico : Manuel Goepfert
Aiuto per la traduzione : Arnaldo La Scala

Contatto : metmap@orbifly.com




FONTI E CREDITI :

   NOAA